Terminal Aerodrome Forecast
Issued by NWS Duluth, MN

Home | Current Version | Previous Version | Text Only | Print | Product List | Glossary On
Versions: 1 2 3 4 5 6 7 8 9 10 11 12 13 14 15 16 17 18 19 20
038
FTUS43 KDLH 171120
TAFDLH
TAF
KDLH 171120Z 1712/1812 30005KT P6SM FEW250
     FM171700 22007G14KT P6SM FEW250
     FM180000 21007KT P6SM FEW250
     FM180600 22007KT P6SM SKC WS020/23040KT=

USA.gov is the U.S. government's official web portal to all federal, state and local government web resources and services.